sensor_id;sensor_type;location;lat;lon;timestamp;temperature;humidity
2749;DHT22;1382;52.142;11.618;2022-09-25T00:01:03;18.20;49.20
2749;DHT22;1382;52.142;11.618;2022-09-25T00:03:31;18.00;48.90
2749;DHT22;1382;52.142;11.618;2022-09-25T00:06:03;18.00;49.00
2749;DHT22;1382;52.142;11.618;2022-09-25T00:08:30;18.00;49.70
2749;DHT22;1382;52.142;11.618;2022-09-25T00:10:56;18.00;49.90
2749;DHT22;1382;52.142;11.618;2022-09-25T00:13:24;18.00;49.60
2749;DHT22;1382;52.142;11.618;2022-09-25T00:15:53;18.00;49.40
2749;DHT22;1382;52.142;11.618;2022-09-25T00:18:21;18.00;49.70
2749;DHT22;1382;52.142;11.618;2022-09-25T00:20:59;18.00;49.80
2749;DHT22;1382;52.142;11.618;2022-09-25T00:23:26;18.00;49.80
2749;DHT22;1382;52.142;11.618;2022-09-25T00:25:53;18.00;50.00
2749;DHT22;1382;52.142;11.618;2022-09-25T00:28:20;17.90;49.10
2749;DHT22;1382;52.142;11.618;2022-09-25T00:30:46;17.90;49.40
2749;DHT22;1382;52.142;11.618;2022-09-25T00:33:14;17.90;49.80
2749;DHT22;1382;52.142;11.618;2022-09-25T00:35:41;17.90;48.90
2749;DHT22;1382;52.142;11.618;2022-09-25T00:38:08;17.90;49.10
2749;DHT22;1382;52.142;11.618;2022-09-25T00:40:35;17.90;48.80
2749;DHT22;1382;52.142;11.618;2022-09-25T00:43:02;17.80;48.30
2749;DHT22;1382;52.142;11.618;2022-09-25T00:45:29;17.80;48.40
2749;DHT22;1382;52.142;11.618;2022-09-25T00:47:58;17.90;48.60
2749;DHT22;1382;52.142;11.618;2022-09-25T00:50:32;17.80;48.50
2749;DHT22;1382;52.142;11.618;2022-09-25T00:53:04;17.90;48.30
2749;DHT22;1382;52.142;11.618;2022-09-25T00:55:32;17.80;48.20
2749;DHT22;1382;52.142;11.618;2022-09-25T00:58:01;17.80;48.20
2749;DHT22;1382;52.142;11.618;2022-09-25T01:00:29;17.80;48.20
2749;DHT22;1382;52.142;11.618;2022-09-25T01:02:56;17.80;48.40
2749;DHT22;1382;52.142;11.618;2022-09-25T01:05:27;17.80;48.20
2749;DHT22;1382;52.142;11.618;2022-09-25T01:07:58;17.80;48.30
2749;DHT22;1382;52.142;11.618;2022-09-25T01:10:27;17.80;48.40
2749;DHT22;1382;52.142;11.618;2022-09-25T01:12:54;17.80;48.20
2749;DHT22;1382;52.142;11.618;2022-09-25T01:15:26;17.70;48.30
2749;DHT22;1382;52.142;11.618;2022-09-25T01:18:03;17.80;49.30
2749;DHT22;1382;52.142;11.618;2022-09-25T01:20:43;17.90;49.40
2749;DHT22;1382;52.142;11.618;2022-09-25T01:23:30;17.70;49.60
2749;DHT22;1382;52.142;11.618;2022-09-25T01:26:24;17.70;49.40
2749;DHT22;1382;52.142;11.618;2022-09-25T01:29:00;17.70;49.10
2749;DHT22;1382;52.142;11.618;2022-09-25T01:31:33;17.70;48.90
2749;DHT22;1382;52.142;11.618;2022-09-25T01:34:04;17.60;49.20
2749;DHT22;1382;52.142;11.618;2022-09-25T01:36:36;17.70;49.10
2749;DHT22;1382;52.142;11.618;2022-09-25T01:39:09;17.70;48.90
2749;DHT22;1382;52.142;11.618;2022-09-25T01:41:43;17.70;48.80
2749;DHT22;1382;52.142;11.618;2022-09-25T01:44:16;17.70;48.90
2749;DHT22;1382;52.142;11.618;2022-09-25T01:46:49;17.60;49.10
2749;DHT22;1382;52.142;11.618;2022-09-25T01:49:19;17.60;49.10
2749;DHT22;1382;52.142;11.618;2022-09-25T01:51:51;17.60;48.80
2749;DHT22;1382;52.142;11.618;2022-09-25T01:54:25;17.60;48.50
2749;DHT22;1382;52.142;11.618;2022-09-25T01:56:56;17.60;48.60
2749;DHT22;1382;52.142;11.618;2022-09-25T01:59:28;17.60;49.20
2749;DHT22;1382;52.142;11.618;2022-09-25T02:02:02;17.60;49.00
2749;DHT22;1382;52.142;11.618;2022-09-25T02:04:35;17.60;48.40
2749;DHT22;1382;52.142;11.618;2022-09-25T02:07:05;17.70;49.30
2749;DHT22;1382;52.142;11.618;2022-09-25T02:09:36;17.50;49.90
2749;DHT22;1382;52.142;11.618;2022-09-25T02:12:10;17.50;49.50
2749;DHT22;1382;52.142;11.618;2022-09-25T02:14:42;17.50;49.40
2749;DHT22;1382;52.142;11.618;2022-09-25T02:17:13;17.50;49.70
2749;DHT22;1382;52.142;11.618;2022-09-25T02:19:40;17.50;49.10
2749;DHT22;1382;52.142;11.618;2022-09-25T02:22:11;17.50;48.60
2749;DHT22;1382;52.142;11.618;2022-09-25T02:24:45;17.40;49.00
2749;DHT22;1382;52.142;11.618;2022-09-25T02:27:13;17.50;49.00
2749;DHT22;1382;52.142;11.618;2022-09-25T02:29:41;17.40;48.60
2749;DHT22;1382;52.142;11.618;2022-09-25T02:32:11;17.40;49.00
2749;DHT22;1382;52.142;11.618;2022-09-25T02:34:38;17.40;49.30
2749;DHT22;1382;52.142;11.618;2022-09-25T02:37:09;17.40;48.90
2749;DHT22;1382;52.142;11.618;2022-09-25T02:39:36;17.40;48.80
2749;DHT22;1382;52.142;11.618;2022-09-25T02:42:25;17.40;48.80
2749;DHT22;1382;52.142;11.618;2022-09-25T02:45:08;17.40;48.80
2749;DHT22;1382;52.142;11.618;2022-09-25T02:47:46;17.40;49.10
2749;DHT22;1382;52.142;11.618;2022-09-25T02:50:22;17.30;49.10
2749;DHT22;1382;52.142;11.618;2022-09-25T02:52:59;17.30;49.00
2749;DHT22;1382;52.142;11.618;2022-09-25T02:55:33;17.30;49.20
2749;DHT22;1382;52.142;11.618;2022-09-25T02:58:06;17.30;49.60
2749;DHT22;1382;52.142;11.618;2022-09-25T03:00:37;17.30;49.50
2749;DHT22;1382;52.142;11.618;2022-09-25T03:03:07;17.30;49.10
2749;DHT22;1382;52.142;11.618;2022-09-25T03:05:35;17.20;49.00
2749;DHT22;1382;52.142;11.618;2022-09-25T03:08:02;17.20;48.90
2749;DHT22;1382;52.142;11.618;2022-09-25T03:10:31;17.20;49.00
2749;DHT22;1382;52.142;11.618;2022-09-25T03:13:12;17.20;49.00
2749;DHT22;1382;52.142;11.618;2022-09-25T03:15:41;17.30;49.20
2749;DHT22;1382;52.142;11.618;2022-09-25T03:18:10;17.20;49.30
2749;DHT22;1382;52.142;11.618;2022-09-25T03:20:37;17.20;49.40
2749;DHT22;1382;52.142;11.618;2022-09-25T03:23:04;17.20;49.80
2749;DHT22;1382;52.142;11.618;2022-09-25T03:25:31;17.10;49.50
2749;DHT22;1382;52.142;11.618;2022-09-25T03:27:58;17.10;49.30
2749;DHT22;1382;52.142;11.618;2022-09-25T03:30:25;17.10;49.10
2749;DHT22;1382;52.142;11.618;2022-09-25T03:32:53;17.10;49.30
2749;DHT22;1382;52.142;11.618;2022-09-25T03:35:20;17.10;49.80
2749;DHT22;1382;52.142;11.618;2022-09-25T03:37:46;17.10;49.80
2749;DHT22;1382;52.142;11.618;2022-09-25T03:40:13;17.10;49.50
2749;DHT22;1382;52.142;11.618;2022-09-25T03:42:40;17.00;49.30
2749;DHT22;1382;52.142;11.618;2022-09-25T03:45:08;17.10;49.20
2749;DHT22;1382;52.142;11.618;2022-09-25T03:47:35;17.10;49.00
2749;DHT22;1382;52.142;11.618;2022-09-25T03:50:03;17.00;48.80
2749;DHT22;1382;52.142;11.618;2022-09-25T03:52:30;17.00;48.80
2749;DHT22;1382;52.142;11.618;2022-09-25T03:54:57;17.00;48.60
2749;DHT22;1382;52.142;11.618;2022-09-25T03:57:24;17.00;48.50
2749;DHT22;1382;52.142;11.618;2022-09-25T03:59:51;17.00;48.40
2749;DHT22;1382;52.142;11.618;2022-09-25T04:02:17;16.90;48.30
2749;DHT22;1382;52.142;11.618;2022-09-25T04:04:44;17.00;48.20
2749;DHT22;1382;52.142;11.618;2022-09-25T04:07:13;16.90;48.10
2749;DHT22;1382;52.142;11.618;2022-09-25T04:09:39;16.90;48.40
2749;DHT22;1382;52.142;11.618;2022-09-25T04:12:06;16.90;48.60
2749;DHT22;1382;52.142;11.618;2022-09-25T04:14:33;16.90;48.40
2749;DHT22;1382;52.142;11.618;2022-09-25T04:17:00;16.90;48.80
2749;DHT22;1382;52.142;11.618;2022-09-25T04:19:26;16.90;48.90
2749;DHT22;1382;52.142;11.618;2022-09-25T04:21:53;16.90;49.00
2749;DHT22;1382;52.142;11.618;2022-09-25T04:24:21;16.80;49.10
2749;DHT22;1382;52.142;11.618;2022-09-25T04:26:48;16.80;49.30
2749;DHT22;1382;52.142;11.618;2022-09-25T04:29:15;16.80;48.90
2749;DHT22;1382;52.142;11.618;2022-09-25T04:31:42;16.80;48.80
2749;DHT22;1382;52.142;11.618;2022-09-25T04:34:09;16.90;48.90
2749;DHT22;1382;52.142;11.618;2022-09-25T04:36:36;16.80;48.90
2749;DHT22;1382;52.142;11.618;2022-09-25T04:39:03;16.80;48.90
2749;DHT22;1382;52.142;11.618;2022-09-25T04:41:31;16.80;49.00
2749;DHT22;1382;52.142;11.618;2022-09-25T04:43:57;16.80;49.20
2749;DHT22;1382;52.142;11.618;2022-09-25T04:46:24;16.70;49.10
2749;DHT22;1382;52.142;11.618;2022-09-25T04:48:51;16.70;49.80
2749;DHT22;1382;52.142;11.618;2022-09-25T04:51:18;16.70;49.00
2749;DHT22;1382;52.142;11.618;2022-09-25T04:53:44;16.70;49.00
2749;DHT22;1382;52.142;11.618;2022-09-25T04:56:11;16.70;49.10
2749;DHT22;1382;52.142;11.618;2022-09-25T04:58:44;16.70;49.00
2749;DHT22;1382;52.142;11.618;2022-09-25T05:01:12;16.60;48.90
2749;DHT22;1382;52.142;11.618;2022-09-25T05:03:39;16.60;48.80
2749;DHT22;1382;52.142;11.618;2022-09-25T05:06:06;16.60;49.00
2749;DHT22;1382;52.142;11.618;2022-09-25T05:08:33;16.60;49.10
2749;DHT22;1382;52.142;11.618;2022-09-25T05:10:59;16.60;48.90
2749;DHT22;1382;52.142;11.618;2022-09-25T05:13:26;16.60;48.90
2749;DHT22;1382;52.142;11.618;2022-09-25T05:15:54;16.50;48.70
2749;DHT22;1382;52.142;11.618;2022-09-25T05:18:22;16.70;49.00
2749;DHT22;1382;52.142;11.618;2022-09-25T05:20:50;16.50;49.20
2749;DHT22;1382;52.142;11.618;2022-09-25T05:23:17;16.60;49.00
2749;DHT22;1382;52.142;11.618;2022-09-25T05:25:49;16.50;48.90
2749;DHT22;1382;52.142;11.618;2022-09-25T05:28:16;16.50;49.00
2749;DHT22;1382;52.142;11.618;2022-09-25T05:30:43;16.40;48.90
2749;DHT22;1382;52.142;11.618;2022-09-25T05:33:11;16.40;49.20
2749;DHT22;1382;52.142;11.618;2022-09-25T05:35:38;16.40;49.90
2749;DHT22;1382;52.142;11.618;2022-09-25T05:38:04;16.40;49.50
2749;DHT22;1382;52.142;11.618;2022-09-25T05:40:31;16.40;49.40
2749;DHT22;1382;52.142;11.618;2022-09-25T05:42:58;16.40;49.50
2749;DHT22;1382;52.142;11.618;2022-09-25T05:45:25;16.40;50.00
2749;DHT22;1382;52.142;11.618;2022-09-25T05:48:01;16.40;49.30
2749;DHT22;1382;52.142;11.618;2022-09-25T05:50:30;16.40;50.00
2749;DHT22;1382;52.142;11.618;2022-09-25T05:52:58;16.30;50.20
2749;DHT22;1382;52.142;11.618;2022-09-25T05:55:25;16.30;50.60
2749;DHT22;1382;52.142;11.618;2022-09-25T05:57:52;16.30;50.30
2749;DHT22;1382;52.142;11.618;2022-09-25T06:00:19;16.40;50.40
2749;DHT22;1382;52.142;11.618;2022-09-25T06:02:50;16.40;50.60
2749;DHT22;1382;52.142;11.618;2022-09-25T06:05:17;16.40;51.00
2749;DHT22;1382;52.142;11.618;2022-09-25T06:07:51;16.30;50.40
2749;DHT22;1382;52.142;11.618;2022-09-25T06:10:18;16.40;50.80
2749;DHT22;1382;52.142;11.618;2022-09-25T06:12:44;16.30;50.40
2749;DHT22;1382;52.142;11.618;2022-09-25T06:15:11;16.30;50.30
2749;DHT22;1382;52.142;11.618;2022-09-25T06:17:38;16.40;51.00
2749;DHT22;1382;52.142;11.618;2022-09-25T06:20:05;16.40;50.90
2749;DHT22;1382;52.142;11.618;2022-09-25T06:22:39;16.40;51.00
2749;DHT22;1382;52.142;11.618;2022-09-25T06:25:08;16.40;51.00
2749;DHT22;1382;52.142;11.618;2022-09-25T06:27:35;16.40;51.10
2749;DHT22;1382;52.142;11.618;2022-09-25T06:30:02;16.40;50.60
2749;DHT22;1382;52.142;11.618;2022-09-25T06:32:29;16.40;50.60
2749;DHT22;1382;52.142;11.618;2022-09-25T06:34:56;16.40;50.80
2749;DHT22;1382;52.142;11.618;2022-09-25T06:37:22;16.40;50.70
2749;DHT22;1382;52.142;11.618;2022-09-25T06:39:49;16.40;51.20
2749;DHT22;1382;52.142;11.618;2022-09-25T06:42:17;16.50;51.90
2749;DHT22;1382;52.142;11.618;2022-09-25T06:44:44;16.50;51.70
2749;DHT22;1382;52.142;11.618;2022-09-25T06:47:11;16.50;51.90
2749;DHT22;1382;52.142;11.618;2022-09-25T06:49:44;16.50;53.10
2749;DHT22;1382;52.142;11.618;2022-09-25T06:52:11;16.60;52.70
2749;DHT22;1382;52.142;11.618;2022-09-25T06:54:37;16.60;53.20
2749;DHT22;1382;52.142;11.618;2022-09-25T06:57:09;16.70;53.80
2749;DHT22;1382;52.142;11.618;2022-09-25T06:59:38;16.70;53.70
2749;DHT22;1382;52.142;11.618;2022-09-25T07:02:05;16.80;54.20
2749;DHT22;1382;52.142;11.618;2022-09-25T07:04:32;16.80;54.00
2749;DHT22;1382;52.142;11.618;2022-09-25T07:06:59;16.90;53.70
2749;DHT22;1382;52.142;11.618;2022-09-25T07:09:25;17.20;54.40
2749;DHT22;1382;52.142;11.618;2022-09-25T07:11:52;17.10;54.60
2749;DHT22;1382;52.142;11.618;2022-09-25T07:14:19;17.30;55.10
2749;DHT22;1382;52.142;11.618;2022-09-25T07:16:47;17.30;56.00
2749;DHT22;1382;52.142;11.618;2022-09-25T07:19:14;17.50;55.70
2749;DHT22;1382;52.142;11.618;2022-09-25T07:21:41;17.50;54.50
2749;DHT22;1382;52.142;11.618;2022-09-25T07:24:08;17.60;55.10
2749;DHT22;1382;52.142;11.618;2022-09-25T07:26:35;17.70;55.30
2749;DHT22;1382;52.142;11.618;2022-09-25T07:29:08;17.80;55.00
2749;DHT22;1382;52.142;11.618;2022-09-25T07:31:35;17.90;54.50
2749;DHT22;1382;52.142;11.618;2022-09-25T07:34:03;18.00;54.00
2749;DHT22;1382;52.142;11.618;2022-09-25T07:36:30;18.20;54.50
2749;DHT22;1382;52.142;11.618;2022-09-25T07:38:57;18.30;54.50
2749;DHT22;1382;52.142;11.618;2022-09-25T07:41:24;18.40;53.90
2749;DHT22;1382;52.142;11.618;2022-09-25T07:43:51;18.60;53.80
2749;DHT22;1382;52.142;11.618;2022-09-25T07:46:37;18.60;53.60
2749;DHT22;1382;52.142;11.618;2022-09-25T07:49:08;18.70;52.90
2749;DHT22;1382;52.142;11.618;2022-09-25T07:51:36;18.80;53.20
2749;DHT22;1382;52.142;11.618;2022-09-25T07:54:03;18.90;53.60
2749;DHT22;1382;52.142;11.618;2022-09-25T07:56:29;19.00;53.90
2749;DHT22;1382;52.142;11.618;2022-09-25T07:58:56;19.00;52.60
2749;DHT22;1382;52.142;11.618;2022-09-25T08:01:23;19.10;52.70
2749;DHT22;1382;52.142;11.618;2022-09-25T08:03:50;19.20;53.10
2749;DHT22;1382;52.142;11.618;2022-09-25T08:06:18;19.20;52.80
2749;DHT22;1382;52.142;11.618;2022-09-25T08:08:45;19.20;52.70
2749;DHT22;1382;52.142;11.618;2022-09-25T08:11:14;19.30;52.70
2749;DHT22;1382;52.142;11.618;2022-09-25T08:13:41;19.30;52.60
2749;DHT22;1382;52.142;11.618;2022-09-25T08:16:10;19.40;52.40
2749;DHT22;1382;52.142;11.618;2022-09-25T08:18:38;19.40;52.40
2749;DHT22;1382;52.142;11.618;2022-09-25T08:21:05;19.50;52.50
2749;DHT22;1382;52.142;11.618;2022-09-25T08:23:33;19.50;52.10
2749;DHT22;1382;52.142;11.618;2022-09-25T08:26:00;19.60;52.20
2749;DHT22;1382;52.142;11.618;2022-09-25T08:28:27;19.70;52.20
2749;DHT22;1382;52.142;11.618;2022-09-25T08:30:56;19.70;52.20
2749;DHT22;1382;52.142;11.618;2022-09-25T08:33:24;19.80;51.80
2749;DHT22;1382;52.142;11.618;2022-09-25T08:35:54;19.80;51.60
2749;DHT22;1382;52.142;11.618;2022-09-25T08:38:21;19.80;51.50
2749;DHT22;1382;52.142;11.618;2022-09-25T08:40:53;20.00;51.90
2749;DHT22;1382;52.142;11.618;2022-09-25T08:43:22;20.00;52.10
2749;DHT22;1382;52.142;11.618;2022-09-25T08:45:50;20.00;51.80
2749;DHT22;1382;52.142;11.618;2022-09-25T08:48:20;20.00;51.60
2749;DHT22;1382;52.142;11.618;2022-09-25T08:50:48;20.10;51.30
2749;DHT22;1382;52.142;11.618;2022-09-25T08:53:19;20.10;51.20
2749;DHT22;1382;52.142;11.618;2022-09-25T08:55:49;20.20;51.80
2749;DHT22;1382;52.142;11.618;2022-09-25T08:58:20;20.30;51.70
2749;DHT22;1382;52.142;11.618;2022-09-25T09:00:48;20.40;52.00
2749;DHT22;1382;52.142;11.618;2022-09-25T09:03:15;20.30;51.80
2749;DHT22;1382;52.142;11.618;2022-09-25T09:05:44;20.40;52.20
2749;DHT22;1382;52.142;11.618;2022-09-25T09:08:20;20.40;51.90
2749;DHT22;1382;52.142;11.618;2022-09-25T09:10:52;20.50;51.70
2749;DHT22;1382;52.142;11.618;2022-09-25T09:13:24;20.70;51.80
2749;DHT22;1382;52.142;11.618;2022-09-25T09:15:57;20.80;51.50
2749;DHT22;1382;52.142;11.618;2022-09-25T09:18:28;20.70;51.30
2749;DHT22;1382;52.142;11.618;2022-09-25T09:20:57;20.80;51.30
2749;DHT22;1382;52.142;11.618;2022-09-25T09:23:30;20.90;51.20
2749;DHT22;1382;52.142;11.618;2022-09-25T09:26:02;20.90;51.50
2749;DHT22;1382;52.142;11.618;2022-09-25T09:28:56;21.00;51.50
2749;DHT22;1382;52.142;11.618;2022-09-25T09:31:29;21.10;51.10
2749;DHT22;1382;52.142;11.618;2022-09-25T09:34:08;20.90;51.10
2749;DHT22;1382;52.142;11.618;2022-09-25T09:36:42;21.10;50.80
2749;DHT22;1382;52.142;11.618;2022-09-25T09:39:15;21.20;50.80
2749;DHT22;1382;52.142;11.618;2022-09-25T09:41:56;21.20;50.50
2749;DHT22;1382;52.142;11.618;2022-09-25T09:44:39;21.40;50.30
2749;DHT22;1382;52.142;11.618;2022-09-25T09:47:31;21.30;50.20
2749;DHT22;1382;52.142;11.618;2022-09-25T09:50:13;21.50;50.10
2749;DHT22;1382;52.142;11.618;2022-09-25T09:52:43;21.50;50.60
2749;DHT22;1382;52.142;11.618;2022-09-25T09:55:20;21.50;50.40
2749;DHT22;1382;52.142;11.618;2022-09-25T09:57:53;21.50;50.10
2749;DHT22;1382;52.142;11.618;2022-09-25T10:00:21;21.60;50.00
2749;DHT22;1382;52.142;11.618;2022-09-25T10:02:51;21.60;50.00
2749;DHT22;1382;52.142;11.618;2022-09-25T10:05:23;21.80;50.10
2749;DHT22;1382;52.142;11.618;2022-09-25T10:07:51;21.70;49.80
2749;DHT22;1382;52.142;11.618;2022-09-25T10:10:19;21.80;49.80
2749;DHT22;1382;52.142;11.618;2022-09-25T10:12:50;22.00;49.80
2749;DHT22;1382;52.142;11.618;2022-09-25T10:15:29;22.00;49.30
2749;DHT22;1382;52.142;11.618;2022-09-25T10:17:59;22.10;49.30
2749;DHT22;1382;52.142;11.618;2022-09-25T10:20:32;22.10;49.40
2749;DHT22;1382;52.142;11.618;2022-09-25T10:23:04;22.10;49.30
2749;DHT22;1382;52.142;11.618;2022-09-25T10:25:36;22.20;49.40
2749;DHT22;1382;52.142;11.618;2022-09-25T10:28:26;22.20;49.10
2749;DHT22;1382;52.142;11.618;2022-09-25T10:30:53;22.30;48.90
2749;DHT22;1382;52.142;11.618;2022-09-25T10:33:22;22.30;49.10
2749;DHT22;1382;52.142;11.618;2022-09-25T10:35:50;22.30;48.90
2749;DHT22;1382;52.142;11.618;2022-09-25T10:38:32;22.40;48.50
2749;DHT22;1382;52.142;11.618;2022-09-25T10:41:02;22.50;48.60
2749;DHT22;1382;52.142;11.618;2022-09-25T10:43:31;22.60;48.70
2749;DHT22;1382;52.142;11.618;2022-09-25T10:46:11;22.60;48.70
2749;DHT22;1382;52.142;11.618;2022-09-25T10:48:39;22.60;48.20
2749;DHT22;1382;52.142;11.618;2022-09-25T10:51:08;22.60;48.40
2749;DHT22;1382;52.142;11.618;2022-09-25T10:53:35;22.70;48.30
2749;DHT22;1382;52.142;11.618;2022-09-25T10:56:04;22.70;48.00
2749;DHT22;1382;52.142;11.618;2022-09-25T10:58:37;22.70;48.00
2749;DHT22;1382;52.142;11.618;2022-09-25T11:01:07;22.70;47.60
2749;DHT22;1382;52.142;11.618;2022-09-25T11:03:37;22.90;47.80
2749;DHT22;1382;52.142;11.618;2022-09-25T11:06:07;22.80;47.70
2749;DHT22;1382;52.142;11.618;2022-09-25T11:08:37;22.70;47.40
2749;DHT22;1382;52.142;11.618;2022-09-25T11:11:05;22.70;47.50
2749;DHT22;1382;52.142;11.618;2022-09-25T11:13:38;22.80;47.30
2749;DHT22;1382;52.142;11.618;2022-09-25T11:16:08;22.80;46.90
2749;DHT22;1382;52.142;11.618;2022-09-25T11:18:39;22.80;47.10
2749;DHT22;1382;52.142;11.618;2022-09-25T11:21:17;22.80;47.00
2749;DHT22;1382;52.142;11.618;2022-09-25T11:23:55;22.90;46.70
2749;DHT22;1382;52.142;11.618;2022-09-25T11:26:27;22.90;46.90
2749;DHT22;1382;52.142;11.618;2022-09-25T11:29:02;22.90;47.90
2749;DHT22;1382;52.142;11.618;2022-09-25T11:31:34;22.90;47.30
2749;DHT22;1382;52.142;11.618;2022-09-25T11:34:08;22.90;47.20
2749;DHT22;1382;52.142;11.618;2022-09-25T11:36:42;23.00;47.10
2749;DHT22;1382;52.142;11.618;2022-09-25T11:39:13;23.00;47.50
2749;DHT22;1382;52.142;11.618;2022-09-25T11:41:44;23.10;47.30
2749;DHT22;1382;52.142;11.618;2022-09-25T11:44:21;23.10;47.10
2749;DHT22;1382;52.142;11.618;2022-09-25T11:46:55;23.20;47.40
2749;DHT22;1382;52.142;11.618;2022-09-25T11:49:26;23.30;46.40
2749;DHT22;1382;52.142;11.618;2022-09-25T11:52:15;23.40;45.90
2749;DHT22;1382;52.142;11.618;2022-09-25T11:55:07;23.40;46.30
2749;DHT22;1382;52.142;11.618;2022-09-25T11:57:41;23.50;46.70
2749;DHT22;1382;52.142;11.618;2022-09-25T12:00:17;23.50;46.00
2749;DHT22;1382;52.142;11.618;2022-09-25T12:03:02;23.60;45.60
2749;DHT22;1382;52.142;11.618;2022-09-25T12:05:46;23.60;46.20
2749;DHT22;1382;52.142;11.618;2022-09-25T12:08:29;23.70;46.10
2749;DHT22;1382;52.142;11.618;2022-09-25T12:11:07;23.80;45.00
2749;DHT22;1382;52.142;11.618;2022-09-25T12:13:40;23.90;45.40
2749;DHT22;1382;52.142;11.618;2022-09-25T12:16:19;24.10;45.80
2749;DHT22;1382;52.142;11.618;2022-09-25T12:19:05;24.00;45.00
2749;DHT22;1382;52.142;11.618;2022-09-25T12:21:38;24.10;45.20
2749;DHT22;1382;52.142;11.618;2022-09-25T12:24:15;24.00;45.20
2749;DHT22;1382;52.142;11.618;2022-09-25T12:26:51;24.10;45.10
2749;DHT22;1382;52.142;11.618;2022-09-25T12:29:31;24.10;44.60
2749;DHT22;1382;52.142;11.618;2022-09-25T12:32:08;24.10;44.60
2749;DHT22;1382;52.142;11.618;2022-09-25T12:34:53;24.10;45.00
2749;DHT22;1382;52.142;11.618;2022-09-25T12:37:29;24.10;44.70
2749;DHT22;1382;52.142;11.618;2022-09-25T12:39:58;24.00;44.90
2749;DHT22;1382;52.142;11.618;2022-09-25T12:42:36;24.00;45.00
2749;DHT22;1382;52.142;11.618;2022-09-25T12:45:12;24.20;45.10
2749;DHT22;1382;52.142;11.618;2022-09-25T12:47:45;24.00;45.00
2749;DHT22;1382;52.142;11.618;2022-09-25T12:50:16;24.00;44.80
2749;DHT22;1382;52.142;11.618;2022-09-25T12:52:50;24.00;45.20
2749;DHT22;1382;52.142;11.618;2022-09-25T12:55:21;24.10;45.40
2749;DHT22;1382;52.142;11.618;2022-09-25T12:57:53;24.00;44.90
2749;DHT22;1382;52.142;11.618;2022-09-25T13:00:28;24.00;45.50
2749;DHT22;1382;52.142;11.618;2022-09-25T13:03:03;23.80;45.40
2749;DHT22;1382;52.142;11.618;2022-09-25T13:05:36;23.70;45.10
2749;DHT22;1382;52.142;11.618;2022-09-25T13:08:09;23.70;45.40
2749;DHT22;1382;52.142;11.618;2022-09-25T13:10:41;23.80;45.40
2749;DHT22;1382;52.142;11.618;2022-09-25T13:13:12;23.70;45.60
2749;DHT22;1382;52.142;11.618;2022-09-25T13:15:41;23.70;45.10
2749;DHT22;1382;52.142;11.618;2022-09-25T13:18:14;23.70;45.10
2749;DHT22;1382;52.142;11.618;2022-09-25T13:20:52;23.80;45.40
2749;DHT22;1382;52.142;11.618;2022-09-25T13:23:27;23.60;45.30
2749;DHT22;1382;52.142;11.618;2022-09-25T13:25:57;23.60;45.10
2749;DHT22;1382;52.142;11.618;2022-09-25T13:28:25;23.60;45.20
2749;DHT22;1382;52.142;11.618;2022-09-25T13:30:59;23.50;44.90
2749;DHT22;1382;52.142;11.618;2022-09-25T13:33:42;23.60;45.30
2749;DHT22;1382;52.142;11.618;2022-09-25T13:36:26;23.70;44.60
2749;DHT22;1382;52.142;11.618;2022-09-25T13:38:56;23.60;44.90
2749;DHT22;1382;52.142;11.618;2022-09-25T13:41:24;23.60;45.10
2749;DHT22;1382;52.142;11.618;2022-09-25T13:50:24;23.70;44.80
2749;DHT22;1382;52.142;11.618;2022-09-25T13:56:14;23.40;44.90
2749;DHT22;1382;52.142;11.618;2022-09-25T14:01:58;23.40;45.30
2749;DHT22;1382;52.142;11.618;2022-09-25T14:04:45;23.40;45.80
2749;DHT22;1382;52.142;11.618;2022-09-25T14:07:18;23.20;46.00
2749;DHT22;1382;52.142;11.618;2022-09-25T14:09:51;23.30;46.20
2749;DHT22;1382;52.142;11.618;2022-09-25T14:12:28;23.20;45.90
2749;DHT22;1382;52.142;11.618;2022-09-25T14:14:59;23.20;45.40
2749;DHT22;1382;52.142;11.618;2022-09-25T14:17:29;23.00;44.90
2749;DHT22;1382;52.142;11.618;2022-09-25T14:19:58;23.00;45.40
2749;DHT22;1382;52.142;11.618;2022-09-25T14:22:35;22.90;45.60
2749;DHT22;1382;52.142;11.618;2022-09-25T14:25:24;22.90;45.60
2749;DHT22;1382;52.142;11.618;2022-09-25T14:27:53;22.90;45.60
2749;DHT22;1382;52.142;11.618;2022-09-25T14:30:20;22.80;46.10
2749;DHT22;1382;52.142;11.618;2022-09-25T14:32:57;22.80;46.40
2749;DHT22;1382;52.142;11.618;2022-09-25T14:35:34;22.90;46.60
2749;DHT22;1382;52.142;11.618;2022-09-25T14:38:24;22.90;46.20
2749;DHT22;1382;52.142;11.618;2022-09-25T14:41:08;22.80;46.40
2749;DHT22;1382;52.142;11.618;2022-09-25T14:46:33;22.70;46.60
2749;DHT22;1382;52.142;11.618;2022-09-25T14:49:08;22.70;46.60
2749;DHT22;1382;52.142;11.618;2022-09-25T14:51:40;22.70;46.50
2749;DHT22;1382;52.142;11.618;2022-09-25T14:54:11;22.60;46.60
2749;DHT22;1382;52.142;11.618;2022-09-25T14:56:39;22.60;46.70
2749;DHT22;1382;52.142;11.618;2022-09-25T14:59:09;22.60;47.40
2749;DHT22;1382;52.142;11.618;2022-09-25T15:01:44;22.60;47.20
2749;DHT22;1382;52.142;11.618;2022-09-25T15:04:11;22.60;47.50
2749;DHT22;1382;52.142;11.618;2022-09-25T15:06:38;22.60;47.50
2749;DHT22;1382;52.142;11.618;2022-09-25T15:09:27;22.70;47.40
2749;DHT22;1382;52.142;11.618;2022-09-25T15:11:54;22.80;47.30
2749;DHT22;1382;52.142;11.618;2022-09-25T15:14:22;22.70;47.50
2749;DHT22;1382;52.142;11.618;2022-09-25T15:16:49;22.80;47.30
2749;DHT22;1382;52.142;11.618;2022-09-25T15:19:18;22.70;47.00
2749;DHT22;1382;52.142;11.618;2022-09-25T15:21:46;22.60;47.40
2749;DHT22;1382;52.142;11.618;2022-09-25T15:24:16;22.50;48.00
2749;DHT22;1382;52.142;11.618;2022-09-25T15:26:47;22.50;48.10
2749;DHT22;1382;52.142;11.618;2022-09-25T15:29:16;22.50;48.00
2749;DHT22;1382;52.142;11.618;2022-09-25T15:31:48;22.50;47.90
2749;DHT22;1382;52.142;11.618;2022-09-25T15:34:20;22.50;47.90
2749;DHT22;1382;52.142;11.618;2022-09-25T15:36:47;22.40;47.70
2749;DHT22;1382;52.142;11.618;2022-09-25T15:39:16;22.40;47.50
2749;DHT22;1382;52.142;11.618;2022-09-25T15:41:43;22.30;47.50
2749;DHT22;1382;52.142;11.618;2022-09-25T15:44:13;22.30;47.70
2749;DHT22;1382;52.142;11.618;2022-09-25T15:46:44;22.30;47.60
2749;DHT22;1382;52.142;11.618;2022-09-25T15:49:15;22.20;47.40
2749;DHT22;1382;52.142;11.618;2022-09-25T15:51:51;22.10;47.30
2749;DHT22;1382;52.142;11.618;2022-09-25T15:54:30;22.10;47.80
2749;DHT22;1382;52.142;11.618;2022-09-25T15:56:58;22.10;47.40
2749;DHT22;1382;52.142;11.618;2022-09-25T15:59:28;21.90;47.40
2749;DHT22;1382;52.142;11.618;2022-09-25T16:01:56;21.80;47.70
2749;DHT22;1382;52.142;11.618;2022-09-25T16:04:25;21.80;47.70
2749;DHT22;1382;52.142;11.618;2022-09-25T16:06:51;21.80;47.70
2749;DHT22;1382;52.142;11.618;2022-09-25T16:09:26;21.80;47.60
2749;DHT22;1382;52.142;11.618;2022-09-25T16:12:19;21.80;47.50
2749;DHT22;1382;52.142;11.618;2022-09-25T16:14:46;21.80;48.00
2749;DHT22;1382;52.142;11.618;2022-09-25T16:17:19;21.70;47.50
2749;DHT22;1382;52.142;11.618;2022-09-25T16:20:02;21.80;47.50
2749;DHT22;1382;52.142;11.618;2022-09-25T16:22:37;21.80;47.50
2749;DHT22;1382;52.142;11.618;2022-09-25T16:25:17;21.80;47.50